createdAt,value
2022-12-29T00:02:06.123Z,10.30
2022-12-29T00:04:33.791Z,10.30
2022-12-29T00:07:01.516Z,10.30
2022-12-29T00:09:29.269Z,10.40
2022-12-29T00:11:56.941Z,10.40
2022-12-29T00:14:42.394Z,10.40
2022-12-29T00:17:11.469Z,10.40
2022-12-29T00:19:56.844Z,10.40
2022-12-29T00:22:41.929Z,10.50
2022-12-29T00:25:28.014Z,10.50
2022-12-29T00:28:13.152Z,10.50
2022-12-29T00:31:09.937Z,10.50
2022-12-29T00:33:56.633Z,10.60
2022-12-29T00:36:26.267Z,10.50
2022-12-29T00:39:14.887Z,10.60
2022-12-29T00:42:00.124Z,10.60
2022-12-29T00:44:27.824Z,10.60
2022-12-29T00:46:55.507Z,10.60
2022-12-29T00:49:32.300Z,10.70
2022-12-29T00:52:00.758Z,10.70
2022-12-29T00:54:28.661Z,10.70
2022-12-29T00:56:56.451Z,10.60
2022-12-29T00:59:25.001Z,10.70
2022-12-29T01:01:53.966Z,10.70
2022-12-29T01:04:22.152Z,10.70
2022-12-29T01:06:51.501Z,10.70
2022-12-29T01:09:37.427Z,10.70
2022-12-29T01:12:05.194Z,10.70
2022-12-29T01:14:32.976Z,10.70
2022-12-29T01:17:00.672Z,10.70
2022-12-29T01:19:28.588Z,10.70
2022-12-29T01:21:57.600Z,10.60
2022-12-29T01:24:27.010Z,10.60
2022-12-29T01:26:55.338Z,10.60
2022-12-29T01:29:23.180Z,10.60
2022-12-29T01:31:51.459Z,10.60
2022-12-29T01:34:19.233Z,10.60
2022-12-29T01:36:46.862Z,10.50
2022-12-29T01:39:15.892Z,10.60
2022-12-29T01:41:43.936Z,10.60
2022-12-29T01:44:30.371Z,10.60
2022-12-29T01:46:58.029Z,10.60
2022-12-29T01:49:28.334Z,10.60
2022-12-29T01:51:59.323Z,10.60
2022-12-29T01:54:29.994Z,10.60
2022-12-29T01:56:59.434Z,10.60
2022-12-29T01:59:29.945Z,10.60
2022-12-29T02:01:57.644Z,10.60
2022-12-29T02:04:25.655Z,10.60
2022-12-29T02:06:55.490Z,10.70
2022-12-29T02:09:24.507Z,10.70
2022-12-29T02:11:53.674Z,10.70
2022-12-29T02:14:21.339Z,10.70
2022-12-29T02:16:57.832Z,10.80
2022-12-29T02:19:48.725Z,10.80
2022-12-29T02:22:20.273Z,10.80
2022-12-29T02:25:02.509Z,10.80
2022-12-29T02:27:42.739Z,10.80
2022-12-29T02:30:17.482Z,10.80
2022-12-29T02:32:53.524Z,10.80
2022-12-29T02:35:25.680Z,10.80
2022-12-29T02:37:57.686Z,10.70
2022-12-29T02:40:26.919Z,10.70
2022-12-29T02:43:04.643Z,10.70
2022-12-29T02:45:34.302Z,10.70
2022-12-29T02:48:06.276Z,10.60
2022-12-29T02:50:35.915Z,10.50
2022-12-29T02:53:06.431Z,10.50
2022-12-29T02:55:33.165Z,10.50
2022-12-29T02:58:15.425Z,10.50
2022-12-29T03:00:45.811Z,10.50
2022-12-29T03:03:19.969Z,10.50
2022-12-29T03:05:58.859Z,10.40
2022-12-29T03:08:30.612Z,10.40
2022-12-29T03:11:01.953Z,10.40
2022-12-29T03:13:52.219Z,10.40
2022-12-29T03:16:23.074Z,10.40
2022-12-29T03:18:57.461Z,10.40
2022-12-29T03:21:48.826Z,10.40
2022-12-29T03:24:17.471Z,10.40
2022-12-29T03:26:47.115Z,10.50
2022-12-29T03:29:15.908Z,10.50
2022-12-29T03:31:44.404Z,10.40
2022-12-29T03:34:13.885Z,10.40
2022-12-29T03:36:46.305Z,10.50
2022-12-29T03:39:15.290Z,10.50
2022-12-29T03:41:45.444Z,10.50
2022-12-29T03:44:14.616Z,10.50
2022-12-29T03:46:42.406Z,10.50
2022-12-29T03:49:10.081Z,10.60
2022-12-29T03:51:39.104Z,10.60
2022-12-29T03:54:07.059Z,10.60
2022-12-29T03:56:35.163Z,10.70
2022-12-29T03:59:02.927Z,10.70
2022-12-29T04:01:30.634Z,10.70
2022-12-29T04:03:58.440Z,10.80
2022-12-29T04:06:26.130Z,10.80
2022-12-29T04:08:55.135Z,10.80
2022-12-29T04:11:26.064Z,10.80
2022-12-29T04:13:56.086Z,10.80
2022-12-29T04:16:23.814Z,10.80
2022-12-29T04:18:51.682Z,10.80
2022-12-29T04:21:19.358Z,10.80
2022-12-29T04:23:47.075Z,10.90
2022-12-29T04:26:16.084Z,10.80
2022-12-29T04:28:43.737Z,10.90
2022-12-29T04:31:11.711Z,10.90
2022-12-29T04:33:39.389Z,10.90
2022-12-29T04:36:07.554Z,10.90
2022-12-29T04:38:35.285Z,10.90
2022-12-29T04:41:03.324Z,11.00
2022-12-29T04:43:32.351Z,11.00
2022-12-29T04:46:00.082Z,11.00
2022-12-29T04:48:27.947Z,11.00
2022-12-29T04:50:55.769Z,11.00
2022-12-29T04:53:23.428Z,11.00
2022-12-29T04:55:51.927Z,11.00
2022-12-29T04:58:22.857Z,11.00
2022-12-29T05:00:53.501Z,11.10
2022-12-29T05:03:21.296Z,11.10
2022-12-29T05:05:49.059Z,11.10
2022-12-29T05:08:16.731Z,11.00
2022-12-29T05:10:46.186Z,10.90
2022-12-29T05:13:13.918Z,10.90
2022-12-29T05:15:42.233Z,10.80
2022-12-29T05:18:11.276Z,10.80
2022-12-29T05:20:38.921Z,10.80
2022-12-29T05:23:06.573Z,10.80
2022-12-29T05:25:34.253Z,10.70
2022-12-29T05:28:01.920Z,10.60
2022-12-29T05:30:29.625Z,10.60
2022-12-29T05:32:57.307Z,10.50
2022-12-29T05:35:26.320Z,10.50
2022-12-29T05:37:53.986Z,10.40
2022-12-29T05:40:21.690Z,10.40
2022-12-29T05:42:49.402Z,10.50
2022-12-29T05:45:17.177Z,10.50
2022-12-29T05:47:46.183Z,10.50
2022-12-29T05:50:13.846Z,10.50
2022-12-29T05:52:43.026Z,10.60
2022-12-29T05:55:10.872Z,10.60
2022-12-29T05:57:38.640Z,10.60
2022-12-29T06:00:06.977Z,10.60
2022-12-29T06:02:34.972Z,10.70
2022-12-29T06:05:02.714Z,10.70
2022-12-29T06:07:30.407Z,10.80
2022-12-29T06:09:59.430Z,10.80
2022-12-29T06:12:27.114Z,10.80
2022-12-29T06:14:55.062Z,10.80
2022-12-29T06:17:22.725Z,10.90
2022-12-29T06:19:50.687Z,10.90
2022-12-29T06:22:18.335Z,10.90
2022-12-29T06:24:46.126Z,11.00
2022-12-29T06:27:15.720Z,11.00
2022-12-29T06:29:43.806Z,11.00
2022-12-29T06:32:11.595Z,11.10
2022-12-29T06:34:39.327Z,11.10
2022-12-29T06:37:06.964Z,11.10
2022-12-29T06:39:34.795Z,11.20
2022-12-29T06:42:02.460Z,11.20
2022-12-29T06:44:31.500Z,11.20
2022-12-29T06:46:59.206Z,11.30
2022-12-29T06:49:26.847Z,11.30
2022-12-29T06:51:54.535Z,11.30
2022-12-29T06:54:22.361Z,11.30
2022-12-29T06:56:50.017Z,11.20
2022-12-29T06:59:17.684Z,11.20
2022-12-29T07:01:46.860Z,11.10
2022-12-29T07:04:14.643Z,11.10
2022-12-29T07:06:42.369Z,11.00
2022-12-29T07:09:10.059Z,11.00
2022-12-29T07:11:37.835Z,10.90
2022-12-29T07:14:05.507Z,10.90
2022-12-29T07:16:35.242Z,10.90
2022-12-29T07:19:04.325Z,10.80
2022-12-29T07:21:32.025Z,10.90
2022-12-29T07:23:59.813Z,10.80
2022-12-29T07:26:31.536Z,10.80
2022-12-29T07:29:02.258Z,10.90
2022-12-29T07:31:29.959Z,10.90
2022-12-29T07:33:57.631Z,11.00
2022-12-29T07:36:30.865Z,11.00
2022-12-29T07:39:01.945Z,11.10
2022-12-29T07:41:29.662Z,11.20
2022-12-29T07:43:57.403Z,11.20
2022-12-29T07:46:55.216Z,11.30
2022-12-29T07:49:12.688Z,11.30
2022-12-29T07:51:41.679Z,11.40
2022-12-29T07:54:10.467Z,11.40
2022-12-29T07:56:38.136Z,11.40
2022-12-29T07:59:05.957Z,11.40
2022-12-29T08:01:33.797Z,11.40
2022-12-29T08:04:01.869Z,11.40
2022-12-29T08:06:30.969Z,11.40
2022-12-29T08:09:07.833Z,11.40
2022-12-29T08:11:41.196Z,11.40
2022-12-29T08:14:09.124Z,11.40
2022-12-29T08:16:36.847Z,11.40
2022-12-29T08:19:05.986Z,11.30
2022-12-29T08:21:33.850Z,11.30
2022-12-29T08:24:02.967Z,11.30
2022-12-29T08:26:30.662Z,11.30
2022-12-29T08:28:58.358Z,11.30
2022-12-29T08:31:26.054Z,11.30
2022-12-29T08:33:54.203Z,11.20
2022-12-29T08:36:22.038Z,11.20
2022-12-29T08:38:49.704Z,11.20
2022-12-29T08:41:18.699Z,11.20
2022-12-29T08:43:47.551Z,11.30
2022-12-29T08:46:15.292Z,11.20
2022-12-29T08:48:42.977Z,11.20
2022-12-29T08:51:10.882Z,11.10
2022-12-29T08:53:38.592Z,11.10
2022-12-29T08:56:06.687Z,11.00
2022-12-29T08:58:35.712Z,10.90
2022-12-29T09:01:06.184Z,10.80
2022-12-29T09:06:22.128Z,10.70
2022-12-29T09:08:49.825Z,10.60
2022-12-29T09:11:18.753Z,10.60
2022-12-29T09:13:48.272Z,10.60
2022-12-29T09:16:16.134Z,10.50
2022-12-29T09:18:44.169Z,10.50
2022-12-29T09:21:12.460Z,10.50
2022-12-29T09:23:40.893Z,10.50
2022-12-29T09:26:09.329Z,10.50
2022-12-29T09:28:37.719Z,10.50
2022-12-29T09:31:07.012Z,10.40
2022-12-29T09:33:35.327Z,10.40
2022-12-29T09:36:03.069Z,10.40
2022-12-29T09:38:30.816Z,10.40
2022-12-29T09:41:02.107Z,10.40
2022-12-29T09:43:37.613Z,10.40
2022-12-29T09:46:15.468Z,10.30
2022-12-29T09:48:46.143Z,10.30
2022-12-29T09:51:15.621Z,10.30
2022-12-29T09:53:45.326Z,10.30
2022-12-29T09:56:15.409Z,10.30
2022-12-29T09:58:45.800Z,10.40
2022-12-29T10:01:19.131Z,10.30
2022-12-29T10:03:48.765Z,10.40
2022-12-29T10:06:19.465Z,10.40
2022-12-29T10:08:50.953Z,10.30
2022-12-29T10:11:26.726Z,10.30
2022-12-29T10:14:02.365Z,10.30
2022-12-29T10:16:40.182Z,10.30
2022-12-29T10:19:16.475Z,10.30
2022-12-29T10:21:50.092Z,10.30
2022-12-29T10:24:18.733Z,10.30
2022-12-29T10:26:47.348Z,10.30
2022-12-29T10:29:16.662Z,10.30
2022-12-29T10:31:48.145Z,10.30
2022-12-29T10:34:20.448Z,10.30
2022-12-29T10:36:49.828Z,10.30
2022-12-29T10:39:21.238Z,10.30
2022-12-29T10:41:51.577Z,10.40
2022-12-29T10:44:19.819Z,10.40
2022-12-29T10:46:53.396Z,10.40
2022-12-29T10:49:22.482Z,10.40
2022-12-29T10:51:52.944Z,10.50
2022-12-29T10:54:23.407Z,10.60
2022-12-29T10:56:53.502Z,10.60
2022-12-29T10:59:23.111Z,10.60
2022-12-29T11:02:00.368Z,10.70
2022-12-29T11:04:35.468Z,11.00
2022-12-29T11:07:03.582Z,11.30
2022-12-29T11:09:47.931Z,11.60
2022-12-29T11:12:22.382Z,11.90
2022-12-29T11:15:01.704Z,12.10
2022-12-29T11:17:30.781Z,12.40
2022-12-29T11:19:58.506Z,12.80
2022-12-29T11:22:27.536Z,12.80
2022-12-29T11:24:55.767Z,12.70
2022-12-29T11:27:24.553Z,12.40
2022-12-29T11:29:52.531Z,12.30
2022-12-29T11:32:27.859Z,12.30
2022-12-29T11:34:58.499Z,12.30
2022-12-29T11:37:29.030Z,12.30
2022-12-29T11:39:58.632Z,12.50
2022-12-29T11:42:37.161Z,12.50
2022-12-29T11:45:10.679Z,12.60
2022-12-29T11:47:38.923Z,12.70
2022-12-29T11:50:09.163Z,12.70
2022-12-29T11:52:40.288Z,12.70
2022-12-29T11:55:18.530Z,12.70
2022-12-29T11:57:46.615Z,12.70
2022-12-29T12:00:18.297Z,12.80
2022-12-29T12:02:52.862Z,12.80
2022-12-29T12:05:28.561Z,13.30
2022-12-29T12:07:58.624Z,13.50
2022-12-29T12:10:28.969Z,13.50
2022-12-29T12:13:01.892Z,13.50
2022-12-29T12:15:45.353Z,13.40
2022-12-29T12:18:26.229Z,13.20
2022-12-29T12:20:56.754Z,12.90
2022-12-29T12:23:29.740Z,12.70
2022-12-29T12:26:01.227Z,12.60
2022-12-29T12:28:36.552Z,12.50
2022-12-29T12:31:08.059Z,12.40
2022-12-29T12:33:38.201Z,12.20
2022-12-29T12:36:15.684Z,12.20
2022-12-29T12:38:48.382Z,12.10
2022-12-29T12:41:21.858Z,12.10
2022-12-29T12:43:52.016Z,12.00
2022-12-29T12:46:33.715Z,12.00
2022-12-29T12:49:13.750Z,11.90
2022-12-29T12:51:49.034Z,11.70
2022-12-29T12:54:26.805Z,11.60
2022-12-29T12:57:01.124Z,11.60
2022-12-29T12:59:38.445Z,11.50
2022-12-29T13:02:13.257Z,11.40
2022-12-29T13:04:54.958Z,11.40
2022-12-29T13:07:30.716Z,11.40
2022-12-29T13:10:04.321Z,11.40
2022-12-29T13:12:36.237Z,11.40
2022-12-29T13:15:08.094Z,11.60
2022-12-29T13:17:38.631Z,11.70
2022-12-29T13:20:12.551Z,11.90
2022-12-29T13:22:45.462Z,12.00
2022-12-29T13:25:24.702Z,12.20
2022-12-29T13:27:55.184Z,12.30
2022-12-29T13:30:24.048Z,12.30
2022-12-29T13:32:57.808Z,12.40
2022-12-29T13:35:31.340Z,12.40
2022-12-29T13:38:02.288Z,12.40
2022-12-29T13:40:35.003Z,12.30
2022-12-29T13:43:03.147Z,12.20
2022-12-29T13:45:33.008Z,12.10
2022-12-29T13:48:03.735Z,12.00
2022-12-29T13:50:34.136Z,12.00
2022-12-29T13:53:06.978Z,11.90
2022-12-29T13:55:37.655Z,11.90
2022-12-29T13:58:06.991Z,11.90
2022-12-29T14:00:37.793Z,11.90
2022-12-29T14:03:18.627Z,11.90
2022-12-29T14:05:47.377Z,11.90
2022-12-29T14:08:18.959Z,11.90
2022-12-29T14:10:50.749Z,11.90
2022-12-29T14:13:20.201Z,11.80
2022-12-29T14:15:53.618Z,11.80
2022-12-29T14:18:23.490Z,11.80
2022-12-29T14:20:53.769Z,11.80
2022-12-29T14:23:30.684Z,11.70
2022-12-29T14:25:59.856Z,11.60
2022-12-29T14:28:28.300Z,11.60
2022-12-29T14:30:56.226Z,11.50
2022-12-29T14:33:26.618Z,11.50
2022-12-29T14:35:54.916Z,11.50
2022-12-29T14:38:33.839Z,11.50
2022-12-29T14:41:25.774Z,11.50
2022-12-29T14:43:55.457Z,11.50
2022-12-29T14:46:23.434Z,11.50
2022-12-29T14:48:57.207Z,11.50
2022-12-29T14:51:31.249Z,11.50
2022-12-29T14:54:00.260Z,11.50
2022-12-29T14:56:29.444Z,11.50
2022-12-29T14:58:58.302Z,11.50
2022-12-29T15:01:38.587Z,11.50
2022-12-29T15:04:09.323Z,11.50
2022-12-29T15:06:38.003Z,11.30
2022-12-29T15:09:12.600Z,11.30
2022-12-29T15:11:46.594Z,11.20
2022-12-29T15:14:30.870Z,11.10
2022-12-29T15:16:58.606Z,11.10
2022-12-29T15:19:27.205Z,11.00
2022-12-29T15:21:55.835Z,10.90
2022-12-29T15:24:25.686Z,10.90
2022-12-29T15:26:55.401Z,10.80
2022-12-29T15:29:31.681Z,10.70
2022-12-29T15:32:00.756Z,10.70
2022-12-29T15:34:31.269Z,10.60
2022-12-29T15:37:00.421Z,10.60
2022-12-29T15:39:31.391Z,10.50
2022-12-29T15:42:02.076Z,10.50
2022-12-29T15:44:31.609Z,10.50
2022-12-29T15:46:59.601Z,10.50
2022-12-29T15:49:31.982Z,10.40
2022-12-29T15:52:00.395Z,10.50
2022-12-29T15:54:31.135Z,10.50
2022-12-29T15:57:00.140Z,10.40
2022-12-29T15:59:28.837Z,10.50
2022-12-29T16:01:57.880Z,10.50
2022-12-29T16:04:27.581Z,10.40
2022-12-29T16:06:59.554Z,10.50
2022-12-29T16:09:34.064Z,10.50
2022-12-29T16:12:05.086Z,10.40
2022-12-29T16:14:35.223Z,10.40
2022-12-29T16:17:04.804Z,10.40
2022-12-29T16:19:35.041Z,10.40
2022-12-29T16:22:03.372Z,10.40
2022-12-29T16:24:32.930Z,10.40
2022-12-29T16:27:03.346Z,10.40
2022-12-29T16:29:32.811Z,10.40
2022-12-29T16:32:03.785Z,10.30
2022-12-29T16:34:32.478Z,10.30
2022-12-29T16:37:00.821Z,10.30
2022-12-29T16:39:30.706Z,10.20
2022-12-29T16:41:58.699Z,10.20
2022-12-29T16:44:27.803Z,10.20
2022-12-29T16:47:08.265Z,10.10
2022-12-29T16:49:36.726Z,10.00
2022-12-29T16:52:12.943Z,10.00
2022-12-29T16:54:41.047Z,9.90
2022-12-29T16:57:09.108Z,9.90
2022-12-29T16:59:37.590Z,9.80
2022-12-29T17:02:09.618Z,9.80
2022-12-29T17:04:37.381Z,9.80
2022-12-29T17:07:05.009Z,9.80
2022-12-29T17:09:32.644Z,9.80
2022-12-29T17:12:08.570Z,9.70
2022-12-29T17:14:41.279Z,9.70
2022-12-29T17:17:14.531Z,9.70
2022-12-29T17:19:44.189Z,9.60
2022-12-29T17:22:12.268Z,9.60
2022-12-29T17:24:40.056Z,9.60
2022-12-29T17:27:07.718Z,9.60
2022-12-29T17:29:37.063Z,9.60
2022-12-29T17:32:06.810Z,9.50
2022-12-29T17:34:35.784Z,9.50
2022-12-29T17:37:04.123Z,9.50
2022-12-29T17:39:31.778Z,9.50
2022-12-29T17:41:59.382Z,9.50
2022-12-29T17:44:27.322Z,9.50
2022-12-29T17:46:54.952Z,9.50
2022-12-29T17:49:22.591Z,9.50
2022-12-29T17:51:51.633Z,9.50
2022-12-29T17:54:20.754Z,9.50
2022-12-29T17:56:48.783Z,9.50
2022-12-29T17:59:16.491Z,9.40
2022-12-29T18:01:45.689Z,9.40
2022-12-29T18:04:14.657Z,9.40
2022-12-29T18:06:42.749Z,9.40
2022-12-29T18:09:12.037Z,9.40
2022-12-29T18:11:40.421Z,9.30
2022-12-29T18:14:12.170Z,9.30
2022-12-29T18:16:39.793Z,9.30
2022-12-29T18:19:07.677Z,9.20
2022-12-29T18:21:35.306Z,9.20
2022-12-29T18:24:03.079Z,9.10
2022-12-29T18:26:35.478Z,9.00
2022-12-29T18:29:03.126Z,9.00
2022-12-29T18:31:32.153Z,8.90
2022-12-29T18:34:01.013Z,8.90
2022-12-29T18:36:29.141Z,8.90
2022-12-29T18:38:56.815Z,8.90
2022-12-29T18:41:25.172Z,8.90
2022-12-29T18:43:54.150Z,8.90
2022-12-29T18:46:23.467Z,8.90
2022-12-29T18:48:51.556Z,8.90
2022-12-29T18:51:20.035Z,8.80
2022-12-29T18:53:47.698Z,8.80
2022-12-29T18:56:15.373Z,8.80
2022-12-29T18:58:43.084Z,8.80
2022-12-29T19:01:18.421Z,8.80
2022-12-29T19:03:46.184Z,8.80
2022-12-29T19:06:13.855Z,8.80
2022-12-29T19:08:41.529Z,8.80
2022-12-29T19:11:10.219Z,8.80
2022-12-29T19:13:37.883Z,8.80
2022-12-29T19:16:06.559Z,8.90
2022-12-29T19:18:44.491Z,8.90
2022-12-29T19:21:13.489Z,8.90
2022-12-29T19:23:41.415Z,8.90
2022-12-29T19:26:17.948Z,9.00
2022-12-29T19:28:45.651Z,9.00
2022-12-29T19:31:13.331Z,9.10
2022-12-29T19:33:42.333Z,9.00
2022-12-29T19:36:10.455Z,9.10
2022-12-29T19:38:38.117Z,9.00
2022-12-29T19:41:07.436Z,9.00
2022-12-29T19:43:35.100Z,9.00
2022-12-29T19:46:07.228Z,9.00
2022-12-29T19:48:34.987Z,9.00
2022-12-29T19:51:08.530Z,8.90
2022-12-29T19:53:36.438Z,8.90
2022-12-29T19:56:05.338Z,8.90
2022-12-29T19:58:33.621Z,8.90
2022-12-29T20:01:05.055Z,8.90
2022-12-29T20:03:32.872Z,8.90
2022-12-29T20:06:00.558Z,8.90
2022-12-29T20:08:29.568Z,8.90
2022-12-29T20:10:58.054Z,8.90
2022-12-29T20:13:25.724Z,8.90
2022-12-29T20:15:57.997Z,8.90
2022-12-29T20:18:29.179Z,9.00
2022-12-29T20:21:01.801Z,9.00
2022-12-29T20:23:30.857Z,9.00
2022-12-29T20:25:59.385Z,9.00
2022-12-29T20:28:28.002Z,9.00
2022-12-29T20:30:59.521Z,9.00
2022-12-29T20:33:27.651Z,9.00
2022-12-29T20:35:55.602Z,9.00
2022-12-29T20:38:23.284Z,9.00
2022-12-29T20:40:52.279Z,9.00
2022-12-29T20:43:19.957Z,9.00
2022-12-29T20:45:49.174Z,8.90
2022-12-29T20:48:16.926Z,8.90
2022-12-29T20:50:44.601Z,8.90
2022-12-29T20:53:12.740Z,8.90
2022-12-29T20:55:41.406Z,8.90
2022-12-29T20:58:23.662Z,8.90
2022-12-29T21:00:51.881Z,8.90
2022-12-29T21:03:19.667Z,8.90
2022-12-29T21:05:47.426Z,8.90
2022-12-29T21:08:15.151Z,8.90
2022-12-29T21:10:47.347Z,8.90
2022-12-29T21:13:16.619Z,8.90
2022-12-29T21:15:44.396Z,8.90
2022-12-29T21:18:12.058Z,8.90
2022-12-29T21:20:39.831Z,8.90
2022-12-29T21:23:07.705Z,8.90
2022-12-29T21:25:37.972Z,8.90
2022-12-29T21:28:05.828Z,8.90
2022-12-29T21:30:34.923Z,8.90
2022-12-29T21:33:02.724Z,8.90
2022-12-29T21:35:30.534Z,8.80
2022-12-29T21:37:58.224Z,8.80
2022-12-29T21:40:25.913Z,8.80
2022-12-29T21:42:53.597Z,8.70
2022-12-29T21:45:27.646Z,8.60
2022-12-29T21:48:17.060Z,8.60
2022-12-29T21:50:59.491Z,8.60
2022-12-29T21:53:37.676Z,8.50
2022-12-29T21:56:06.105Z,8.50
2022-12-29T21:58:51.060Z,8.40
2022-12-29T22:01:36.155Z,8.40
2022-12-29T22:04:22.842Z,8.30
2022-12-29T22:07:07.872Z,8.30
2022-12-29T22:09:53.589Z,8.20
2022-12-29T22:12:38.528Z,8.20
2022-12-29T22:15:06.958Z,8.20
2022-12-29T22:17:37.616Z,8.10
2022-12-29T22:20:07.625Z,8.00
2022-12-29T22:22:35.257Z,8.00
2022-12-29T22:25:03.619Z,7.90
2022-12-29T22:27:31.336Z,7.90
2022-12-29T22:29:59.012Z,7.90
2022-12-29T22:32:26.947Z,7.80
2022-12-29T22:34:54.656Z,7.80
2022-12-29T22:37:23.934Z,7.80
2022-12-29T22:39:51.602Z,7.80
2022-12-29T22:42:19.335Z,7.70
2022-12-29T22:44:46.988Z,7.70
2022-12-29T22:47:14.636Z,7.70
2022-12-29T22:49:42.551Z,7.70
2022-12-29T22:52:10.221Z,7.60
2022-12-29T22:54:39.229Z,7.60
2022-12-29T22:57:07.048Z,7.50
2022-12-29T22:59:34.771Z,7.50
2022-12-29T23:02:02.530Z,7.50
2022-12-29T23:07:17.991Z,7.40
2022-12-29T23:09:47.105Z,7.40
2022-12-29T23:12:14.779Z,7.40
2022-12-29T23:14:42.425Z,7.30
2022-12-29T23:17:10.109Z,7.40
2022-12-29T23:19:37.812Z,7.40
2022-12-29T23:22:05.461Z,7.30
2022-12-29T23:24:33.143Z,7.40
2022-12-29T23:27:02.150Z,7.30
2022-12-29T23:29:29.914Z,7.30
2022-12-29T23:31:57.581Z,7.30
2022-12-29T23:34:25.282Z,7.40
2022-12-29T23:36:52.991Z,7.40
2022-12-29T23:39:21.484Z,7.40
2022-12-29T23:41:49.145Z,7.40
2022-12-29T23:44:18.290Z,7.40
2022-12-29T23:46:46.076Z,7.40
2022-12-29T23:49:13.995Z,7.30
2022-12-29T23:51:41.769Z,7.30
2022-12-29T23:54:09.551Z,7.30
2022-12-29T23:56:37.235Z,7.30
2022-12-29T23:59:05.463Z,7.20
